Latest Weather Observations for Nowra

IDN60801

Issued at 2:02 pm EST Sunday 1 May 2016 (issued every 30 minutes, with the page automatically refreshed every 10 minutes)

About weather observations | Map of weather stations | Latest weather observations for NSW | Other Formats
Station Details ID: 068072 Name: NOWRA RAN AIR STATION AWS Lat: -34.95 Lon: 150.54 Height: 109.0 m
Data from the previous 72 hours. | See also: Recent months at Nowra
Date/Time
EST
Temp
°C
App
Temp
°C
Dew
Point
Rel
Hum
%
Delta-T
°C
Wind Press
QNH
hPa
Press
MSL
hPa
Rain
since 9 am
mm
Dir
 
Spd
km/h
Gust
km/h
Spd
kts
Gust
kts
01/01:30pm 25.9 19.4 8.8 34 9.3 NW 33 63 18 34 1007.6 - 0.0
01/01:10pm 25.1 19.5 12.0 44 7.5 NW 33 54 18 29 1007.9 - 0.0
01/01:00pm 24.9 19.0 12.5 46 7.2 NW 35 48 19 26 1008.0 - 0.0
01/12:58pm 24.7 18.0 12.3 46 7.1 NW 39 48 21 26 1008.1 - 0.0
01/12:42pm 23.9 18.7 12.8 49 6.4 WNW 32 61 17 33 1008.5 - 0.0
01/12:30pm 22.3 17.3 13.4 57 5.2 W 32 43 17 23 1008.8 - 0.0
01/12:00pm 24.5 18.9 12.1 46 7.1 W 33 57 18 31 1008.7 1008.7 0.0
01/11:30am 25.6 22.2 12.4 43 7.6 NW 22 46 12 25 1008.8 - 0.0
01/11:00am 25.1 23.0 13.6 49 6.8 NNW 17 28 9 15 1009.3 - 0.0
01/10:30am 25.0 22.1 13.9 50 6.6 NNW 22 35 12 19 1009.6 - 0.0
01/10:00am 24.9 22.1 14.4 52 6.3 NW 22 37 12 20 1009.6 - 0.0
01/09:30am 24.0 20.6 13.8 53 6.0 NW 24 43 13 23 1010.0 - 0.0
01/09:00am 22.4 20.0 14.5 61 4.7 NNW 20 28 11 15 1009.9 1009.9 0.2
01/08:30am 20.6 18.4 14.9 70 3.4 NNW 20 30 11 16 1010.0 - 0.2
01/08:00am 20.1 18.2 15.1 73 3.0 NNW 19 32 10 17 1010.0 - 0.2
01/07:30am 19.4 18.6 15.1 76 2.5 NNW 13 20 7 11 1009.9 - 0.2
01/07:00am 19.1 18.4 15.4 79 2.2 NW 13 17 7 9 1010.5 - 0.2
01/06:30am 18.0 17.3 15.3 84 1.6 NW 13 15 7 8 1011.0 - 0.2
01/06:00am 17.0 16.1 14.8 87 1.3 NNW 13 19 7 10 1011.0 1011.0 0.2
01/05:30am 16.6 15.8 15.0 90 0.9 NNW 13 15 7 8 1011.2 - 0.2
01/05:00am 16.6 16.1 14.8 89 1.0 NW 11 13 6 7 1011.3 - 0.0
01/04:30am 17.2 15.6 15.0 87 1.3 WNW 17 20 9 11 1011.9 - 0.0
01/04:00am 16.2 16.3 15.6 96 0.4 WNW 9 13 5 7 1011.2 - 0.0
01/03:30am 14.4 15.2 13.6 95 0.4 NW 2 7 1 4 1011.6 - 0.0
01/03:00am 15.2 14.5 14.2 94 0.6 WNW 11 11 6 6 1011.5 1011.5 0.0
01/02:30am 15.8 14.8 14.5 92 0.7 WNW 13 17 7 9 1011.9 - 0.0
01/02:00am 16.4 15.0 14.4 88 1.1 WNW 15 17 8 9 1012.4 - 0.0
01/01:30am 16.9 15.5 14.5 86 1.4 WNW 15 17 8 9 1012.9 - 0.0
01/01:00am 15.9 14.7 14.1 89 1.0 WNW 13 15 7 8 1012.9 - 0.0
01/12:30am 16.6 15.9 14.4 87 1.3 WNW 11 15 6 8 1013.8 - 0.0
01/12:00am 16.3 16.0 14.3 88 1.1 N 9 13 5 7 1014.5 1014.4 0.0
 
Date/Time
EST
Temp
°C
App
Temp
°C
Dew
Point
Rel
Hum
%
Delta-T
°C
Wind Press
QNH
hPa
Press
MSL
hPa
Rain
since 9 am
mm
Dir
 
Spd
km/h
Gust
km/h
Spd
kts
Gust
kts
30/11:30pm 16.8 16.2 14.6 87 1.3 NNW 11 13 6 7 1014.6 - 0.0
30/11:00pm 16.1 15.4 14.3 89 1.0 NW 11 11 6 6 1015.1 - 0.0
30/10:30pm 17.2 16.2 14.5 84 1.6 WNW 13 15 7 8 1015.2 - 0.0
30/10:00pm 17.1 16.1 14.6 85 1.4 NW 13 15 7 8 1015.6 - 0.0
30/09:30pm 17.0 16.4 14.5 85 1.4 NW 11 13 6 7 1015.7 - 0.0
30/09:00pm 17.0 16.6 15.2 89 1.0 NW 11 13 6 7 1015.7 1015.5 0.0
30/08:30pm 17.1 18.5 14.4 84 1.6 CALM 0 0 0 0 1015.8 - 0.0
30/08:00pm 17.9 17.2 15.5 86 1.4 NW 13 15 7 8 1015.6 - 0.0
30/07:30pm 17.2 17.5 17.0 99 0.1 NW 11 13 6 7 1015.4 - 0.0
30/07:00pm 17.6 18.3 17.1 97 0.3 NW 9 11 5 6 1015.3 - 0.0
30/06:30pm 18.2 20.6 17.0 93 0.7 CALM 0 0 0 0 1015.2 - 0.0
30/06:00pm 19.2 21.4 16.6 85 1.6 CALM 0 0 0 0 1014.9 1014.7 0.0
30/05:30pm 20.9 22.9 16.9 78 2.4 E 2 9 1 5 1015.0 - 0.0
30/05:00pm 22.3 22.9 16.8 71 3.4 N 9 11 5 6 1014.7 - 0.0
30/04:30pm 23.2 23.5 17.0 68 3.8 ENE 11 15 6 8 1014.6 - 0.0
30/04:00pm 25.0 24.9 15.0 53 6.0 NNE 9 13 5 7 1014.6 - 0.0
30/03:30pm 24.7 24.0 15.3 56 5.7 NNW 13 17 7 9 1014.5 - 0.0
30/03:00pm 24.8 23.8 14.6 53 6.1 N 13 19 7 10 1014.6 1014.4 0.0
30/02:30pm 25.9 23.9 15.6 53 6.3 N 20 24 11 13 1014.6 - 0.0
30/02:00pm 23.9 22.3 15.1 58 5.3 N 17 20 9 11 1014.9 - 0.0
30/01:30pm 24.3 23.5 16.0 60 5.1 N 15 20 8 11 1015.0 - 0.0
30/01:00pm 23.6 23.1 15.9 62 4.7 NNW 13 17 7 9 1015.3 - 0.0
30/12:30pm 23.9 22.9 15.7 60 5.0 NNW 15 22 8 12 1015.9 - 0.0
30/12:00pm 23.1 23.4 17.1 69 3.7 NNW 11 15 6 8 1016.4 1016.2 0.0
30/11:30am 21.6 21.6 16.3 72 3.2 NNW 11 15 6 8 1016.8 - 0.0
30/11:00am 22.0 21.5 16.9 73 3.1 NW 15 20 8 11 1017.5 - 0.0
30/10:30am 20.9 21.6 17.1 79 2.3 NW 9 13 5 7 1017.7 - 0.0
30/10:00am 19.8 21.2 17.9 89 1.2 NNW 7 11 4 6 1018.0 - 0.0
30/09:30am 18.8 19.9 18.0 95 0.5 W 9 11 5 6 1018.2 - 0.0
30/09:00am 18.4 20.0 18.2 99 0.1 W 7 11 4 6 1018.6 1018.5 2.2
30/08:30am 18.1 19.5 17.9 99 0.1 W 7 9 4 5 1018.7 - 2.2
30/08:00am 17.7 18.3 17.7 100 0.0 W 11 13 6 7 1018.5 - 2.2
30/07:30am 17.3 18.7 17.3 100 0.0 W 6 11 3 6 1018.2 - 2.2
30/07:00am 17.3 19.8 17.3 100 0.0 CALM 0 0 0 0 1017.9 - 1.8
30/06:30am 17.2 18.3 17.2 100 0.0 NW 7 9 4 5 1017.5 - 1.4
30/06:00am 17.4 18.2 17.2 99 0.1 N 9 11 5 6 1017.4 1017.3 1.2
30/05:30am 17.5 18.2 17.0 97 0.3 NW 9 11 5 6 1017.4 - 1.0
30/05:00am 17.7 18.0 16.9 95 0.5 NW 11 13 6 7 1017.5 - 0.8
30/04:30am 18.0 17.7 16.5 91 0.9 NW 13 15 7 8 1017.6 - 0.6
30/04:00am 18.7 17.9 16.1 85 1.6 WNW 15 19 8 10 1017.2 - 0.4
30/03:30am 18.3 17.9 16.3 88 1.2 NW 13 17 7 9 1016.9 - 0.2
30/03:00am 18.2 18.4 16.7 91 0.9 WNW 11 13 6 7 1017.0 1016.9 0.2
30/02:30am 17.8 18.4 16.8 94 0.6 WNW 9 11 5 6 1017.1 - 0.2
30/02:00am 18.0 18.5 16.5 91 0.9 NNW 9 11 5 6 1017.5 - 0.2
30/01:30am 18.4 18.1 16.4 88 1.2 NW 13 17 7 9 1017.7 - 0.0
30/01:00am 18.4 18.7 16.0 86 1.4 NNW 9 13 5 7 1017.6 - 0.0
30/12:30am 18.7 18.2 15.9 84 1.7 NNW 13 22 7 12 1017.8 - 0.0
30/12:00am 19.5 19.0 15.0 75 2.6 NW 11 15 6 8 1018.1 1018.0 0.0
 
Date/Time
EST
Temp
°C
App
Temp
°C
Dew
Point
Rel
Hum
%
Delta-T
°C
Wind Press
QNH
hPa
Press
MSL
hPa
Rain
since 9 am
mm
Dir
 
Spd
km/h
Gust
km/h
Spd
kts
Gust
kts
29/11:30pm 19.5 18.4 14.3 72 3.0 NW 13 17 7 9 1018.2 - 0.0
29/11:00pm 20.3 19.0 13.7 66 3.8 NW 13 15 7 8 1018.4 - 0.0
29/10:30pm 19.8 18.8 13.3 66 3.7 WNW 11 15 6 8 1018.4 - 0.0
29/10:00pm 19.8 19.4 13.0 65 3.9 WNW 7 11 4 6 1018.2 - 0.0
29/09:30pm 19.6 19.0 13.5 68 3.5 WNW 9 13 5 7 1018.3 - 0.0
29/09:00pm 17.7 18.9 13.8 78 2.2 CALM 0 0 0 0 1018.2 1018.1 0.0
29/08:30pm 17.6 17.9 14.5 82 1.8 WSW 6 7 3 4 1018.1 - 0.0
29/08:00pm 17.6 18.4 13.7 78 2.2 W 2 6 1 3 1017.9 - 0.0
29/07:30pm 17.7 17.3 14.2 80 2.0 W 9 11 5 6 1017.6 - 0.0
29/07:00pm 16.9 18.0 13.4 80 2.0 CALM 0 0 0 0 1017.5 - 0.0
29/06:30pm 18.3 19.4 13.6 74 2.7 CALM 0 0 0 0 1017.4 - 0.0
29/06:00pm 19.5 20.3 13.7 69 3.3 N 2 7 1 4 1017.5 1017.4 0.0
29/05:30pm 21.2 20.2 12.3 57 5.0 N 9 11 5 6 1017.3 - 0.0
29/05:00pm 21.5 20.4 12.1 55 5.3 N 9 13 5 7 1016.8 - 0.0
29/04:30pm 23.2 22.2 12.2 50 6.3 N 9 11 5 6 1016.8 - 0.0
29/04:00pm 24.0 22.4 11.7 46 7.0 N 11 17 6 9 1016.8 - 0.0
29/03:30pm 24.8 23.5 12.4 46 7.1 NNE 11 17 6 9 1016.8 - 0.0
29/03:00pm 24.3 23.2 13.2 50 6.5 NNE 11 17 6 9 1016.9 - 0.0
29/02:30pm 24.5 23.4 14.3 53 6.1 NNE 13 15 7 8 1017.0 - 0.0
29/02:00pm 24.6 23.0 13.8 51 6.4 NE 15 17 8 9 1017.2 - 0.0
29/01:30pm 24.8 23.7 13.0 47 6.9 NE 11 15 6 8 1017.4 - 0.0
29/01:00pm 24.5 24.0 12.5 47 6.9 N 7 9 4 5 1017.8 - 0.0
29/12:30pm 24.6 23.0 11.5 44 7.4 NNE 11 13 6 7 1018.5 - 0.0
29/12:00pm 25.7 25.6 13.2 46 7.3 NNE 6 11 3 6 1019.0 - 0.0
29/11:30am 24.5 23.8 12.1 46 7.1 N 7 9 4 5 1019.8 - 0.0
29/11:00am 23.8 23.0 11.8 47 6.8 N 7 11 4 6 1020.3 - 0.0
29/10:30am 24.1 23.5 11.8 46 7.0 N 6 11 3 6 1020.4 - 0.0
29/10:00am 23.7 22.6 12.0 48 6.7 NNW 9 13 5 7 1020.7 - 0.0
29/09:30am 22.4 21.7 13.2 56 5.3 NNW 9 11 5 6 1021.1 - 0.0
29/09:00am 20.4 20.1 14.3 68 3.5 NW 9 13 5 7 1021.8 1021.7 0.0
29/08:30am 20.0 19.5 13.7 67 3.6 NW 9 13 5 7 1021.7 - 0.0
29/08:00am 17.6 17.1 13.7 78 2.2 NNW 9 11 5 6 1022.0 - 0.0
29/07:30am 17.6 16.6 13.3 76 2.4 WNW 11 13 6 7 1021.7 - 0.0
29/07:00am 15.5 14.4 13.0 85 1.4 NW 11 13 6 7 1021.4 - 0.0
29/06:30am 14.2 13.2 12.2 88 1.1 NW 9 11 5 6 1021.2 - 0.0
29/06:00am 14.4 13.0 12.1 86 1.2 NW 11 13 6 7 1021.0 1020.9 0.0
29/05:30am 14.7 13.0 12.4 86 1.3 NW 13 17 7 9 1021.0 - 0.0
29/05:00am 13.9 12.8 12.1 89 1.0 NW 9 11 5 6 1020.8 - 0.0
29/04:30am 14.2 13.1 12.1 87 1.1 NW 9 11 5 6 1020.8 - 0.0
29/04:00am 14.2 12.9 12.4 89 1.0 WNW 11 13 6 7 1020.8 - 0.0
29/03:30am 13.4 12.2 11.5 88 1.0 WNW 9 11 5 6 1020.6 - 0.0
29/03:00am 15.0 13.4 12.9 87 1.2 W 13 15 7 8 1021.0 1020.9 0.0
29/02:30am 12.5 13.0 11.6 94 0.5 CALM 0 0 0 0 1021.2 - 0.0
29/02:00am 13.9 13.3 12.3 90 0.9 W 7 13 4 7 1021.2 - 0.0
29/01:30am 13.9 14.7 12.5 91 0.8 CALM 0 0 0 0 1021.3 - 0.0
29/01:00am 14.3 12.8 11.8 85 1.4 WNW 11 15 6 8 1021.4 - 0.0
29/12:30am 14.1 14.3 13.1 94 0.6 WNW 4 9 2 5 1021.9 - 0.0
29/12:00am 13.7 13.3 12.4 92 0.7 W 6 9 3 5 1021.7 1021.6 0.0
 
Date/Time
EST
Temp
°C
App
Temp
°C
Dew
Point
Rel
Hum
%
Delta-T
°C
Wind Press
QNH
hPa
Press
MSL
hPa
Rain
since 9 am
mm
Dir
 
Spd
km/h
Gust
km/h
Spd
kts
Gust
kts
28/11:30pm 14.1 14.4 12.1 88 1.1 NW 2 7 1 4 1021.8 - 0.0
28/11:00pm 14.3 14.2 12.0 86 1.2 N 4 7 2 4 1022.0 - 0.0
28/10:30pm 16.3 15.5 13.0 81 1.8 NW 9 11 5 6 1022.0 - 0.0
28/10:00pm 14.8 14.7 13.2 90 0.9 WNW 6 9 3 5 1022.2 - 0.0
28/09:30pm 15.2 16.4 13.9 92 0.7 CALM 0 0 0 0 1022.1 - 0.0
28/09:00pm 15.7 17.1 14.4 92 0.7 CALM 0 0 0 0 1022.0 1021.9 0.0
28/08:30pm 15.3 16.6 14.2 93 0.6 CALM 0 0 0 0 1021.7 - 0.0
28/08:00pm 15.1 15.5 13.6 91 0.8 W 4 9 2 5 1021.6 - 0.0
28/07:30pm 15.0 14.6 13.0 88 1.1 W 7 11 4 6 1021.5 - 0.0
28/07:00pm 15.9 16.1 14.8 93 0.6 SW 7 9 4 5 1021.4 - 0.0
28/06:30pm 16.2 17.0 13.7 85 1.4 SW 2 9 1 5 1021.2 - 0.0
28/06:00pm 18.3 19.4 13.6 74 2.7 CALM 0 11 0 6 1021.0 1020.9 0.0
28/05:30pm 21.0 22.0 14.2 65 4.0 ESE 2 9 1 5 1020.7 - 0.0
28/05:00pm 21.6 20.5 13.2 59 4.8 NE 11 15 6 8 1020.3 - 0.0
28/04:30pm 23.5 23.0 13.7 54 5.7 NNE 9 11 5 6 1020.3 - 0.0
28/04:00pm 24.1 22.6 13.0 50 6.4 NE 13 19 7 10 1020.3 - 0.0
28/03:30pm 25.0 22.5 12.2 44 7.4 NNE 17 20 9 11 1020.4 - 0.0
28/03:00pm 26.3 24.2 9.6 35 9.2 NNE 11 15 6 8 1020.1 1020.0 0.0
28/02:30pm 26.0 23.4 10.6 38 8.7 NE 15 20 8 11 1020.1 - 0.0

Other Formats:

Comma delimited format used in spreadsheet applications
http://www.bom.gov.au/fwo/IDN60801/IDN60801.94750.axf

JavaScript Object Notation format (JSON) in row-major order
http://www.bom.gov.au/fwo/IDN60801/IDN60801.94750.json